Time;durP1;ratioP1;P1;durP2;ratioP2;P2;SDS_P1;SDS_P2;PMS_P1;PMS_P2;Temp;Humidity;BMP_temperature;BMP_pressure;BME280_temperature;BME280_humidity;BME280_pressure;Samples;Min_cycle;Max_cycle;Signal;HPM_P1;HPM_P2
2023/08/17 00:00:10;;;;;;;6.95;4.45;;;20.20;99.90;;;;;;5042171;28;20025;-35
2023/08/17 00:02:36;;;;;;;6.45;4.70;;;20.00;99.90;;;;;;5037335;28;20531;-30
2023/08/17 00:05:01;;;;;;;5.82;4.78;;;19.80;99.90;;;;;;5042180;28;20032;-30
2023/08/17 00:07:28;;;;;;;5.63;4.60;;;19.90;99.90;;;;;;5039930;28;20053;-35
2023/08/17 00:09:54;;;;;;;5.03;4.53;;;19.90;99.90;;;;;;5044938;28;20033;-31
2023/08/17 00:12:20;;;;;;;6.07;4.55;;;20.00;99.90;;;;;;5043688;28;20044;-30
2023/08/17 00:14:45;;;;;;;4.57;4.07;;;20.00;99.90;;;;;;5041704;28;20143;-30
2023/08/17 00:17:11;;;;;;;5.85;5.07;;;20.00;99.90;;;;;;5043069;28;20429;-30
2023/08/17 00:19:36;;;;;;;5.15;4.65;;;20.00;99.90;;;;;;5042225;28;20031;-33
2023/08/17 00:22:02;;;;;;;5.55;4.88;;;20.00;99.90;;;;;;5036977;28;20040;-32
2023/08/17 00:24:28;;;;;;;7.75;4.63;;;20.00;99.90;;;;;;5039113;28;20036;-30
2023/08/17 00:26:53;;;;;;;6.93;5.05;;;20.00;99.90;;;;;;5039577;28;20055;-30
2023/08/17 00:29:19;;;;;;;6.18;5.15;;;19.90;99.90;;;;;;5020152;28;20039;-32
2023/08/17 00:31:44;;;;;;;6.50;4.85;;;19.90;99.90;;;;;;5036672;28;20040;-31
2023/08/17 00:34:10;;;;;;;5.57;4.68;;;20.00;99.90;;;;;;5038246;28;20032;-33
2023/08/17 00:36:36;;;;;;;6.43;4.70;;;20.00;99.90;;;;;;5044624;28;20032;-32
2023/08/17 00:39:01;;;;;;;5.10;4.60;;;20.00;99.90;;;;;;5039295;28;20026;-30
2023/08/17 00:41:28;;;;;;;6.18;4.60;;;19.90;99.90;;;;;;5036988;28;20395;-30
2023/08/17 00:43:54;;;;;;;5.03;4.53;;;19.90;99.90;;;;;;5037148;28;21346;-33
2023/08/17 00:46:22;;;;;;;6.10;4.85;;;19.90;99.90;;;;;;5031542;28;20036;-32
2023/08/17 00:48:47;;;;;;;;;;;19.80;99.90;;;;;;5035132;28;20492;-30
2023/08/17 00:51:14;;;;;;;5.60;4.30;;;19.80;99.90;;;;;;5037110;28;19916;-35
2023/08/17 00:53:40;;;;;;;5.32;4.55;;;19.80;99.90;;;;;;5041956;28;20070;-31
2023/08/17 00:56:05;;;;;;;5.60;4.88;;;19.80;99.90;;;;;;5037878;28;20115;-34
2023/08/17 00:58:31;;;;;;;5.45;4.85;;;19.60;99.90;;;;;;5038550;28;20029;-31
2023/08/17 01:00:58;;;;;;;5.15;4.65;;;19.50;99.90;;;;;;5038365;28;20033;-33
2023/08/17 01:03:27;;;;;;;5.70;4.35;;;19.10;99.90;;;;;;5040134;28;20040;-31
2023/08/17 01:05:53;;;;;;;5.32;4.57;;;18.80;99.90;;;;;;5039706;28;20406;-31
2023/08/17 01:08:19;;;;;;;6.22;4.28;;;18.80;99.90;;;;;;5037413;28;20032;-35
2023/08/17 01:11:25;;;;;;;5.28;4.22;;;18.90;99.90;;;;;;5039155;28;20533;-31
2023/08/17 01:14:02;;;;;;;5.13;4.60;;;19.00;99.90;;;;;;5009532;28;20037;-31
2023/08/17 01:16:33;;;;;;;5.53;5.00;;;19.00;99.90;;;;;;5036300;28;20029;-32
2023/08/17 01:19:01;;;;;;;6.43;4.57;;;19.00;99.90;;;;;;5035504;28;20341;-34
2023/08/17 01:21:40;;;;;;;5.72;5.13;;;19.10;99.90;;;;;;5036450;28;20470;-31
2023/08/17 01:24:06;;;;;;;9.30;4.85;;;19.10;99.90;;;;;;5036964;28;20104;-34
2023/08/17 01:26:32;;;;;;;8.73;5.10;;;19.10;99.90;;;;;;5037085;28;20145;-31
2023/08/17 01:28:57;;;;;;;7.10;4.80;;;19.10;99.90;;;;;;5039774;28;20608;-36
2023/08/17 01:31:53;;;;;;;5.47;4.65;;;19.10;99.90;;;;;;5026289;28;20099;-32
2023/08/17 01:34:23;;;;;;;5.22;4.57;;;19.20;99.90;;;;;;5035394;28;20518;-30
2023/08/17 01:36:57;;;;;;;6.20;4.60;;;19.20;99.90;;;;;;5043707;28;20025;-30
2023/08/17 01:39:27;;;;;;;6.65;4.78;;;19.20;99.90;;;;;;5042422;28;20032;-33
2023/08/17 01:41:56;;;;;;;5.53;4.80;;;18.90;99.90;;;;;;5042923;28;20025;-31
2023/08/17 01:44:22;;;;;;;7.35;5.28;;;18.80;99.90;;;;;;5044802;28;20571;-32
2023/08/17 01:46:48;;;;;;;5.45;4.70;;;18.60;99.90;;;;;;5026925;28;20021;-33
2023/08/17 01:49:14;;;;;;;7.38;4.85;;;18.50;99.90;;;;;;5041578;28;20021;-34
2023/08/17 01:51:39;;;;;;;6.28;5.57;;;18.60;99.90;;;;;;5028248;28;20033;-30
2023/08/17 01:54:05;;;;;;;5.18;4.60;;;18.60;99.90;;;;;;5044315;28;20104;-33
2023/08/17 01:56:31;;;;;;;5.00;4.55;;;18.60;99.90;;;;;;5045123;28;20072;-36
2023/08/17 01:58:56;;;;;;;8.32;5.43;;;18.60;99.90;;;;;;5040652;28;20135;-29
2023/08/17 02:01:22;;;;;;;6.18;5.50;;;18.60;99.90;;;;;;5022043;28;20040;-33
2023/08/17 02:03:48;;;;;;;7.35;4.90;;;18.60;99.90;;;;;;5042519;28;20096;-30
2023/08/17 02:06:13;;;;;;;6.00;4.82;;;18.70;99.90;;;;;;5024643;28;20151;-35
2023/08/17 02:08:39;;;;;;;6.95;5.05;;;18.70;99.90;;;;;;5044160;28;20801;-38
2023/08/17 02:11:04;;;;;;;6.13;4.88;;;18.70;99.90;;;;;;5038066;28;20037;-34
2023/08/17 02:13:30;;;;;;;8.43;4.90;;;18.70;99.90;;;;;;5037940;28;20041;-39
2023/08/17 02:15:56;;;;;;;5.47;4.60;;;18.70;99.90;;;;;;5034103;28;20021;-39
2023/08/17 02:18:21;;;;;;;5.88;4.85;;;18.80;99.90;;;;;;5034883;28;20041;-36
2023/08/17 02:20:47;;;;;;;4.78;4.38;;;18.80;99.90;;;;;;5031659;28;20059;-37
2023/08/17 02:23:12;;;;;;;4.72;4.32;;;18.60;99.90;;;;;;5044090;28;20392;-39
2023/08/17 02:25:39;;;;;;;5.38;3.70;;;18.40;99.90;;;;;;5034406;28;20029;-36
2023/08/17 02:28:05;;;;;;;3.67;3.38;;;18.30;99.90;;;;;;5032026;28;20472;-33
2023/08/17 02:30:31;;;;;;;4.75;4.20;;;18.20;99.90;;;;;;5037570;28;20036;-40
2023/08/17 02:32:57;;;;;;;4.43;4.03;;;18.10;99.90;;;;;;5041595;28;20021;-40
2023/08/17 02:35:23;;;;;;;4.10;3.70;;;18.00;99.90;;;;;;5037476;28;20090;-36
2023/08/17 02:37:48;;;;;;;4.30;3.80;;;18.00;99.90;;;;;;5039661;28;20183;-37
2023/08/17 02:40:14;;;;;;;4.70;4.22;;;18.10;99.90;;;;;;5040004;28;20036;-35
2023/08/17 02:42:39;;;;;;;6.15;4.85;;;18.10;99.90;;;;;;5040564;28;20533;-39
2023/08/17 02:45:07;;;;;;;4.90;4.40;;;18.20;99.90;;;;;;5042687;28;20039;-35
2023/08/17 02:47:32;;;;;;;7.93;5.47;;;18.00;99.90;;;;;;5041847;28;20033;-39
2023/08/17 02:49:58;;;;;;;9.13;6.53;;;18.00;99.90;;;;;;5041662;28;20129;-38
2023/08/17 02:52:23;;;;;;;9.80;7.18;;;18.10;99.90;;;;;;5033185;28;20997;-34
2023/08/17 02:54:49;;;;;;;9.05;7.05;;;18.10;99.90;;;;;;5034088;28;20120;-37
2023/08/17 02:57:15;;;;;;;5.03;4.53;;;18.10;99.90;;;;;;5033817;28;21054;-39
2023/08/17 02:59:40;;;;;;;5.15;4.50;;;18.00;99.90;;;;;;5038450;28;20032;-40
2023/08/17 03:02:06;;;;;;;4.63;4.22;;;17.80;99.90;;;;;;5033667;28;20033;-38
2023/08/17 03:04:32;;;;;;;4.72;4.32;;;17.60;99.90;;;;;;5036125;28;20079;-38
2023/08/17 03:06:58;;;;;;;3.35;3.05;;;17.50;99.90;;;;;;5041731;28;20442;-40
2023/08/17 03:09:23;;;;;;;4.07;3.30;;;17.20;99.90;;;;;;5036116;28;20033;-39
2023/08/17 03:11:49;;;;;;;3.72;3.15;;;17.00;99.90;;;;;;5029219;28;20494;-40
2023/08/17 03:14:14;;;;;;;3.47;3.15;;;17.00;99.90;;;;;;5038291;28;20154;-32
2023/08/17 03:16:40;;;;;;;3.42;3.13;;;17.10;99.90;;;;;;5035512;28;20094;-37
2023/08/17 03:19:07;;;;;;;4.95;3.42;;;17.30;99.90;;;;;;5033017;28;20732;-36
2023/08/17 03:21:33;;;;;;;4.65;4.20;;;17.40;99.90;;;;;;5040666;28;20060;-40
2023/08/17 03:23:59;;;;;;;4.25;3.90;;;17.40;99.90;;;;;;5016909;28;20029;-36
2023/08/17 03:26:24;;;;;;;5.22;4.50;;;17.50;99.90;;;;;;5039148;28;20094;-39
2023/08/17 03:28:50;;;;;;;8.95;5.43;;;17.50;99.90;;;;;;5042858;28;20025;-40
2023/08/17 03:31:16;;;;;;;5.30;4.80;;;17.60;99.90;;;;;;5034857;28;20094;-34
2023/08/17 03:33:42;;;;;;;6.47;4.55;;;17.70;99.90;;;;;;5021774;28;20145;-40
2023/08/17 03:36:07;;;;;;;5.80;4.95;;;17.80;99.90;;;;;;5037599;28;20116;-38
2023/08/17 03:38:33;;;;;;;5.82;5.05;;;17.80;99.90;;;;;;5039735;28;20624;-39
2023/08/17 03:40:58;;;;;;;5.85;4.85;;;17.90;99.90;;;;;;5031259;28;20024;-37
2023/08/17 03:43:26;;;;;;;6.75;4.82;;;17.90;99.90;;;;;;5042339;28;20751;-37
2023/08/17 03:45:51;;;;;;;6.65;5.30;;;17.80;99.90;;;;;;5036405;28;22093;-40
2023/08/17 03:48:17;;;;;;;6.10;4.53;;;17.80;99.90;;;;;;5037407;28;20029;-38
2023/08/17 03:50:43;;;;;;;4.53;4.07;;;17.80;99.90;;;;;;5036627;28;20029;-38
2023/08/17 03:53:09;;;;;;;4.57;4.18;;;17.70;99.90;;;;;;5043008;28;20282;-38
2023/08/17 03:55:35;;;;;;;4.82;4.38;;;17.60;99.90;;;;;;5019772;28;20025;-41
2023/08/17 03:58:00;;;;;;;4.93;4.43;;;17.70;99.90;;;;;;5039814;28;20106;-37
2023/08/17 04:00:26;;;;;;;6.07;4.82;;;17.70;99.90;;;;;;5041845;28;20057;-38
2023/08/17 04:02:51;;;;;;;5.18;4.68;;;17.50;99.90;;;;;;5035782;28;20030;-40
2023/08/17 04:05:17;;;;;;;5.35;4.82;;;17.60;99.90;;;;;;5040040;28;20025;-37
2023/08/17 04:07:43;;;;;;;5.13;4.63;;;17.60;99.90;;;;;;5038610;28;20028;-38
2023/08/17 04:10:08;;;;;;;6.60;5.18;;;17.60;99.90;;;;;;5039678;28;20091;-39
2023/08/17 04:12:34;;;;;;;5.38;4.75;;;17.60;99.90;;;;;;5037278;28;20028;-39
2023/08/17 04:15:00;;;;;;;5.28;4.72;;;17.60;99.90;;;;;;5024715;28;20025;-37
2023/08/17 04:17:26;;;;;;;6.25;5.57;;;17.60;99.90;;;;;;5033436;28;20109;-41
2023/08/17 04:19:52;;;;;;;7.57;5.28;;;17.60;99.90;;;;;;5035779;28;22219;-41
2023/08/17 04:22:18;;;;;;;7.80;5.50;;;17.70;99.90;;;;;;5037845;28;20564;-37
2023/08/17 04:24:43;;;;;;;6.55;5.50;;;17.70;99.90;;;;;;5041149;28;20036;-39
2023/08/17 04:27:09;;;;;;;6.80;5.60;;;17.70;99.90;;;;;;5035035;28;20037;-37
2023/08/17 04:29:34;;;;;;;6.10;5.50;;;17.70;99.90;;;;;;5041371;28;20859;-39
2023/08/17 04:32:00;;;;;;;5.38;4.88;;;17.60;99.90;;;;;;5035180;28;20119;-40
2023/08/17 04:34:26;;;;;;;6.03;5.20;;;17.60;99.90;;;;;;5038861;28;20888;-40
2023/08/17 04:36:51;;;;;;;9.18;5.82;;;17.50;99.90;;;;;;5033185;28;20072;-39
2023/08/17 04:39:17;;;;;;;5.85;5.22;;;17.50;99.90;;;;;;5038875;28;20482;-40
2023/08/17 04:41:43;;;;;;;7.78;5.53;;;17.50;99.90;;;;;;5034376;28;20083;-37
2023/08/17 04:44:08;;;;;;;6.50;5.10;;;17.50;99.90;;;;;;5030557;28;20131;-40
2023/08/17 04:46:35;;;;;;;6.75;5.70;;;17.60;99.90;;;;;;5040387;28;20025;-39
2023/08/17 04:49:00;;;;;;;5.82;5.22;;;17.50;99.90;;;;;;5038866;28;20108;-37
2023/08/17 04:51:26;;;;;;;6.90;5.68;;;17.50;99.90;;;;;;5037901;28;20455;-38
2023/08/17 04:53:51;;;;;;;6.35;5.75;;;17.60;99.90;;;;;;5039376;28;20031;-37
2023/08/17 04:56:17;;;;;;;6.88;5.70;;;17.60;99.90;;;;;;5038172;28;20023;-36
2023/08/17 04:58:43;;;;;;;8.00;6.40;;;17.50;99.90;;;;;;5037915;28;20045;-40
2023/08/17 05:01:09;;;;;;;10.20;5.63;;;17.50;99.90;;;;;;5035499;28;21116;-40
2023/08/17 05:03:34;;;;;;;7.38;5.60;;;17.50;99.90;;;;;;5041431;28;20546;-41
2023/08/17 05:06:00;;;;;;;6.53;5.85;;;17.50;99.90;;;;;;5042862;28;20028;-34
2023/08/17 05:08:25;;;;;;;7.22;5.55;;;17.60;99.90;;;;;;5046954;28;20410;-33
2023/08/17 05:10:51;;;;;;;5.93;5.18;;;17.60;99.90;;;;;;5046356;28;20762;-36
2023/08/17 05:13:19;;;;;;;6.85;5.43;;;17.60;99.90;;;;;;5036371;28;20223;-32
2023/08/17 05:15:44;;;;;;;6.95;5.57;;;17.60;99.90;;;;;;5040428;28;20171;-32
2023/08/17 05:18:10;;;;;;;6.97;5.55;;;17.60;99.90;;;;;;5041960;28;20119;-31
2023/08/17 05:20:36;;;;;;;7.10;5.60;;;17.70;99.90;;;;;;5037634;28;20039;-37
2023/08/17 05:23:02;;;;;;;6.45;5.65;;;17.70;99.90;;;;;;5036903;28;20034;-35
2023/08/17 05:25:29;;;;;;;8.55;5.53;;;17.70;99.90;;;;;;5036791;28;20049;-32
2023/08/17 05:27:54;;;;;;;5.93;5.43;;;17.80;99.90;;;;;;5042559;28;20140;-34
2023/08/17 05:30:20;;;;;;;8.93;6.18;;;17.90;99.90;;;;;;5043435;28;20104;-32
2023/08/17 05:32:46;;;;;;;6.63;5.90;;;18.00;99.90;;;;;;5042368;28;20086;-34
2023/08/17 05:35:11;;;;;;;6.45;5.70;;;18.10;99.90;;;;;;5042038;28;20028;-32
2023/08/17 05:37:37;;;;;;;8.32;6.53;;;18.20;99.90;;;;;;5039787;28;20029;-31
2023/08/17 05:40:04;;;;;;;8.45;6.82;;;18.20;99.90;;;;;;5043737;28;20744;-30
2023/08/17 05:42:30;;;;;;;7.68;6.57;;;18.30;99.90;;;;;;5041745;28;21184;-32
2023/08/17 05:44:55;;;;;;;9.43;7.07;;;18.40;99.90;;;;;;5039621;28;20032;-30
2023/08/17 05:47:21;;;;;;;8.60;6.30;;;18.50;99.90;;;;;;5022671;28;20064;-31
2023/08/17 05:49:47;;;;;;;7.20;6.50;;;18.60;99.90;;;;;;5041696;28;20021;-35
2023/08/17 05:52:13;;;;;;;7.88;7.07;;;18.70;99.90;;;;;;5042938;28;20039;-36
2023/08/17 05:54:38;;;;;;;9.63;7.72;;;18.80;99.90;;;;;;5041271;28;20088;-34
2023/08/17 05:57:04;;;;;;;8.98;8.05;;;18.80;99.90;;;;;;5021219;28;20021;-37
2023/08/17 05:59:29;;;;;;;11.48;8.13;;;18.90;99.90;;;;;;5039009;28;20037;-34
2023/08/17 06:01:55;;;;;;;9.73;7.90;;;19.00;99.90;;;;;;5035856;28;20030;-30
2023/08/17 06:04:21;;;;;;;10.43;8.93;;;19.00;99.90;;;;;;5045492;28;20475;-31
2023/08/17 06:06:46;;;;;;;11.13;8.93;;;19.10;99.90;;;;;;5031511;28;20025;-33
2023/08/17 06:09:12;;;;;;;14.85;9.93;;;19.20;99.90;;;;;;5051126;28;20117;-31
2023/08/17 06:11:38;;;;;;;16.73;9.43;;;19.40;99.90;;;;;;5048625;28;20524;-30
2023/08/17 06:14:04;;;;;;;12.45;9.35;;;19.50;99.90;;;;;;5043784;28;20029;-34
2023/08/17 06:16:29;;;;;;;12.45;8.57;;;19.70;99.90;;;;;;5042969;28;20077;-41
2023/08/17 06:18:55;;;;;;;10.82;7.95;;;19.80;99.90;;;;;;5026507;28;20105;-38
2023/08/17 06:21:21;;;;;;;11.93;8.13;;;19.90;99.90;;;;;;5038833;28;20021;-41
2023/08/17 06:23:47;;;;;;;9.48;7.55;;;20.00;99.90;;;;;;5046725;28;20036;-37
2023/08/17 06:26:12;;;;;;;9.48;7.30;;;20.10;99.90;;;;;;5046636;28;20021;-41
2023/08/17 06:28:38;;;;;;;11.75;8.60;;;20.10;99.90;;;;;;5025094;28;20028;-42
2023/08/17 06:31:03;;;;;;;8.52;7.43;;;20.10;99.90;;;;;;5040748;28;20755;-37
2023/08/17 06:33:29;;;;;;;9.75;7.82;;;20.20;99.90;;;;;;5043810;28;20107;-41
2023/08/17 06:35:55;;;;;;;9.35;7.57;;;20.30;99.90;;;;;;5045400;28;20056;-40
2023/08/17 06:38:20;;;;;;;11.82;7.88;;;20.40;99.90;;;;;;5037667;28;20040;-36
2023/08/17 06:40:46;;;;;;;7.40;6.32;;;20.60;99.90;;;;;;5035739;28;20032;-36
2023/08/17 06:43:11;;;;;;;11.80;8.20;;;20.70;99.90;;;;;;5041482;28;20033;-39
2023/08/17 06:45:37;;;;;;;11.15;8.50;;;20.80;99.90;;;;;;5040612;28;21258;-40
2023/08/17 06:48:03;;;;;;;11.35;9.13;;;21.00;99.90;;;;;;5040016;28;20572;-40
2023/08/17 06:50:29;;;;;;;13.07;9.88;;;21.10;99.90;;;;;;5039219;28;20035;-41
2023/08/17 06:52:54;;;;;;;11.98;8.90;;;21.10;99.90;;;;;;5043513;28;20060;-39
2023/08/17 06:55:20;;;;;;;10.82;8.90;;;21.20;99.90;;;;;;5037194;28;20028;-41
2023/08/17 06:57:47;;;;;;;11.35;9.48;;;21.40;99.90;;;;;;5041241;28;20136;-39
2023/08/17 07:00:13;;;;;;;14.55;10.25;;;21.50;99.90;;;;;;5033264;28;20029;-40
2023/08/17 07:02:38;;;;;;;11.10;8.73;;;21.60;99.90;;;;;;5037583;28;20478;-42
2023/08/17 07:05:05;;;;;;;12.65;9.07;;;21.70;99.90;;;;;;5043146;28;20024;-33
2023/08/17 07:07:33;;;;;;;10.55;9.13;;;22.00;99.90;;;;;;5042392;28;20025;-40
2023/08/17 07:09:59;;;;;;;10.02;8.75;;;22.10;99.90;;;;;;5044402;28;20052;-41
2023/08/17 07:12:24;;;;;;;12.25;8.95;;;22.20;99.90;;;;;;5039520;28;20135;-40
2023/08/17 07:14:50;;;;;;;12.93;9.30;;;22.30;99.90;;;;;;5044023;28;20029;-41
2023/08/17 07:17:16;;;;;;;10.55;9.45;;;22.40;99.90;;;;;;5024673;28;20553;-37
2023/08/17 07:19:41;;;;;;;13.73;9.90;;;22.50;99.90;;;;;;5042965;28;20114;-40
2023/08/17 07:22:07;;;;;;;10.43;8.35;;;22.70;99.90;;;;;;5039918;28;20055;-41
2023/08/17 07:24:32;;;;;;;12.18;10.13;;;22.70;99.90;;;;;;5039937;28;20025;-41
2023/08/17 07:26:58;;;;;;;12.68;9.73;;;22.90;99.90;;;;;;5039921;28;20096;-42
2023/08/17 07:29:24;;;;;;;14.50;9.80;;;23.10;99.90;;;;;;5024134;28;20036;-40
2023/08/17 07:31:49;;;;;;;11.32;10.13;;;23.30;99.90;;;;;;5042960;28;20033;-38
2023/08/17 07:34:15;;;;;;;14.25;9.85;;;23.30;99.90;;;;;;5040061;28;20119;-35
2023/08/17 07:36:42;;;;;;;14.32;10.80;;;23.30;99.90;;;;;;5022994;28;20033;-40
2023/08/17 07:39:07;;;;;;;11.88;9.43;;;23.40;99.90;;;;;;5040555;28;20463;-36
2023/08/17 07:41:33;;;;;;;14.75;10.82;;;23.60;99.90;;;;;;5041106;28;20029;-42
2023/08/17 07:43:58;;;;;;;13.07;10.15;;;23.70;99.90;;;;;;5039564;28;20737;-40
2023/08/17 07:46:24;;;;;;;13.07;9.73;;;23.40;99.90;;;;;;5041050;28;20031;-38
2023/08/17 07:48:50;;;;;;;10.57;8.73;;;23.50;99.90;;;;;;5021920;28;20032;-41
2023/08/17 07:51:16;;;;;;;12.30;10.07;;;23.80;99.90;;;;;;5039389;28;20498;-37
2023/08/17 07:53:41;;;;;;;11.93;10.20;;;24.00;99.90;;;;;;5020793;28;20021;-41
2023/08/17 07:56:07;;;;;;;10.63;9.40;;;23.90;99.90;;;;;;5039547;28;20029;-32
2023/08/17 07:58:32;;;;;;;8.60;7.70;;;24.10;99.90;;;;;;5037415;28;20796;-31
2023/08/17 08:00:58;;;;;;;14.05;9.73;;;24.60;99.90;;;;;;5038644;28;20483;-34
2023/08/17 08:03:24;;;;;;;11.18;9.25;;;24.80;99.90;;;;;;5041621;28;20104;-32
2023/08/17 08:05:49;;;;;;;10.77;9.23;;;24.90;99.90;;;;;;5035971;28;20034;-31
2023/08/17 08:08:17;;;;;;;8.65;7.60;;;25.10;99.90;;;;;;5038092;28;20125;-33
2023/08/17 08:10:44;;;;;;;11.50;9.52;;;25.40;99.90;;;;;;5037798;28;20025;-31
2023/08/17 08:13:09;;;;;;;12.52;10.02;;;25.30;99.90;;;;;;5041484;28;20505;-34
2023/08/17 08:15:35;;;;;;;11.88;9.60;;;24.90;99.90;;;;;;5038028;28;20033;-32
2023/08/17 08:18:00;;;;;;;10.63;9.52;;;24.70;99.90;;;;;;5045206;28;20052;-30
2023/08/17 08:20:26;;;;;;;11.30;9.32;;;24.60;99.90;;;;;;5033844;28;20112;-31
2023/08/17 08:22:52;;;;;;;9.70;8.75;;;24.70;99.90;;;;;;5045219;28;20044;-31
2023/08/17 08:25:17;;;;;;;12.93;8.50;;;24.90;99.90;;;;;;5039502;28;20043;-31
2023/08/17 08:27:43;;;;;;;9.77;8.80;;;25.20;99.90;;;;;;5040867;28;20083;-31
2023/08/17 08:30:09;;;;;;;9.93;8.70;;;25.30;99.90;;;;;;5040938;28;20784;-32
2023/08/17 08:32:34;;;;;;;10.77;9.68;;;25.50;99.90;;;;;;5042706;28;20044;-30
2023/08/17 08:35:00;;;;;;;8.95;8.05;;;25.50;99.90;;;;;;5034808;28;20498;-40
2023/08/17 08:37:26;;;;;;;9.13;8.23;;;25.70;99.90;;;;;;5031264;28;20067;-38
2023/08/17 08:39:53;;;;;;;10.23;7.95;;;25.80;99.90;;;;;;5036997;28;20065;-41
2023/08/17 08:42:20;;;;;;;8.48;7.57;;;26.00;99.90;;;;;;5033379;28;20040;-38
2023/08/17 08:44:46;;;;;;;9.70;8.70;;;26.20;99.90;;;;;;5037507;28;20040;-40
2023/08/17 08:47:13;;;;;;;11.18;9.10;;;26.40;99.90;;;;;;5038188;28;20021;-39
2023/08/17 08:49:57;;;;;;;10.68;8.90;;;26.30;99.90;;;;;;5040372;28;20040;-39
2023/08/17 08:52:26;;;;;;;8.85;7.95;;;26.40;99.90;;;;;;5037850;28;20037;-36
2023/08/17 08:54:55;;;;;;;6.85;6.15;;;26.40;99.90;;;;;;5040851;28;20382;-39
2023/08/17 08:57:21;;;;;;;11.40;8.38;;;26.80;99.90;;;;;;5040714;28;20029;-41
2023/08/17 08:59:48;;;;;;;7.50;6.80;;;27.00;99.90;;;;;;5043934;28;20032;-38
2023/08/17 09:02:18;;;;;;;9.68;8.07;;;27.10;99.90;;;;;;5036747;28;20501;-35
2023/08/17 09:04:47;;;;;;;9.32;8.00;;;27.20;99.90;;;;;;5038155;28;20090;-38
2023/08/17 09:07:14;;;;;;;9.82;8.82;;;27.00;99.90;;;;;;5039361;28;20033;-38
2023/08/17 09:09:39;;;;;;;9.27;8.13;;;26.70;99.90;;;;;;5042395;28;20028;-39
2023/08/17 09:12:11;;;;;;;10.88;8.60;;;26.60;99.90;;;;;;5040582;28;20291;-36
2023/08/17 09:14:37;;;;;;;8.93;7.75;;;26.40;99.90;;;;;;5037137;28;20109;-38
2023/08/17 09:17:04;;;;;;;9.10;8.20;;;26.30;99.90;;;;;;5042487;28;20124;-41
2023/08/17 09:19:32;;;;;;;8.43;7.65;;;26.40;99.90;;;;;;5039449;28;20039;-41
2023/08/17 09:21:58;;;;;;;9.35;8.38;;;26.80;99.90;;;;;;5038771;28;20084;-41
2023/08/17 09:24:29;;;;;;;8.23;7.43;;;26.70;99.90;;;;;;5037276;28;20658;-40
2023/08/17 09:26:58;;;;;;;8.57;7.40;;;26.80;99.90;;;;;;5039747;28;20039;-38
2023/08/17 09:29:25;;;;;;;9.82;7.97;;;27.00;99.90;;;;;;5039268;28;20037;-40
2023/08/17 09:31:51;;;;;;;7.60;6.90;;;27.10;99.90;;;;;;5016870;28;20099;-41
2023/08/17 09:34:18;;;;;;;7.50;6.80;;;27.00;99.90;;;;;;5039555;28;20029;-40
2023/08/17 09:36:46;;;;;;;8.82;7.43;;;27.50;99.90;;;;;;5037955;28;20109;-34
2023/08/17 09:39:12;;;;;;;8.07;7.05;;;27.70;99.90;;;;;;5040599;28;20045;-41
2023/08/17 09:41:40;;;;;;;8.45;7.65;;;27.90;99.90;;;;;;5043793;28;20075;-40
2023/08/17 09:44:07;;;;;;;7.85;7.15;;;27.80;99.90;;;;;;5041386;28;20045;-35
2023/08/17 09:46:32;;;;;;;8.00;7.20;;;27.60;99.90;;;;;;5021827;28;20037;-31
2023/08/17 09:48:58;;;;;;;9.75;7.88;;;28.00;99.90;;;;;;5040465;28;20165;-33
2023/08/17 09:51:24;;;;;;;9.80;7.95;;;27.80;99.90;;;;;;5040248;28;20051;-31
2023/08/17 09:53:53;;;;;;;8.65;7.85;;;27.70;99.90;;;;;;5045686;28;20466;-31
2023/08/17 09:56:23;;;;;;;8.18;7.38;;;27.60;99.90;;;;;;5041240;28;20104;-31
2023/08/17 09:58:49;;;;;;;8.73;7.90;;;27.80;99.90;;;;;;5042305;28;20028;-33
2023/08/17 10:01:15;;;;;;;8.38;7.60;;;27.90;99.90;;;;;;5041227;28;20040;-36
2023/08/17 10:03:45;;;;;;;7.97;7.28;;;27.90;99.90;;;;;;5041232;28;20029;-35
2023/08/17 10:06:13;;;;;;;8.48;7.38;;;28.00;99.90;;;;;;5029408;28;20481;-35
2023/08/17 10:08:49;;;;;;;8.65;7.85;;;28.60;99.90;;;;;;5041119;28;20057;-33
2023/08/17 10:11:19;;;;;;;7.53;6.73;;;28.80;99.90;;;;;;5040888;28;20110;-33
2023/08/17 10:13:59;;;;;;;8.25;7.20;;;28.90;99.90;;;;;;5035679;28;20033;-33
2023/08/17 10:16:49;;;;;;;9.25;7.82;;;29.30;99.90;;;;;;5041061;28;20264;-32
2023/08/17 10:19:34;;;;;;;9.70;7.35;;;29.70;99.90;;;;;;5044923;28;20613;-36
2023/08/17 10:22:15;;;;;;;9.55;7.68;;;29.90;99.90;;;;;;5044499;28;20387;-35
2023/08/17 10:24:41;;;;;;;9.18;8.23;;;30.00;99.90;;;;;;5041533;28;20061;-32
2023/08/17 10:27:09;;;;;;;8.77;7.87;;;29.80;99.90;;;;;;5041851;28;20031;-32
2023/08/17 10:29:34;;;;;;;;;;;29.90;99.90;;;;;;5046387;28;20037;-32
2023/08/17 10:32:01;;;;;;;7.82;7.03;;;29.70;99.90;;;;;;5037255;28;19921;-33
2023/08/17 10:34:28;;;;;;;7.55;6.82;;;29.80;99.90;;;;;;5039524;28;20648;-32
2023/08/17 10:36:57;;;;;;;8.30;6.88;;;30.20;99.90;;;;;;5045702;28;20037;-32
2023/08/17 10:39:28;;;;;;;8.65;7.85;;;30.60;99.90;;;;;;5042088;28;20040;-32
2023/08/17 10:41:54;;;;;;;9.73;7.82;;;30.80;99.90;;;;;;5044352;28;20106;-32
2023/08/17 10:44:46;;;;;;;8.50;7.70;;;30.80;99.90;;;;;;5041748;28;21477;-32
2023/08/17 10:47:29;;;;;;;9.10;8.20;;;30.50;99.90;;;;;;5043371;28;20064;-32
2023/08/17 10:49:59;;;;;;;8.82;7.93;;;29.60;99.90;;;;;;5041971;28;20383;-34
2023/08/17 10:52:33;;;;;;;8.00;6.97;;;29.10;99.90;;;;;;5038078;28;21429;-32
2023/08/17 10:55:12;;;;;;;8.65;7.75;;;29.30;99.90;;;;;;5041470;28;20028;-41
2023/08/17 10:57:39;;;;;;;8.38;7.57;;;29.90;99.90;;;;;;5040988;28;20702;-41
2023/08/17 11:00:26;;;;;;;9.20;7.95;;;30.20;99.90;;;;;;5038246;28;20025;-35
2023/08/17 11:02:52;;;;;;;;;;;29.90;99.90;;;;;;5039912;28;20036;-40
2023/08/17 11:05:44;;;;;;;8.65;7.75;;;30.10;99.90;;;;;;5045259;28;20289;-38
2023/08/17 11:08:13;;;;;;;9.02;7.70;;;30.00;99.90;;;;;;5037944;28;20029;-41
2023/08/17 11:10:39;;;;;;;8.75;7.63;;;30.60;99.90;;;;;;5043095;28;20112;-41
2023/08/17 11:13:06;;;;;;;8.50;7.70;;;30.70;99.90;;;;;;5046338;28;20104;-35
2023/08/17 11:15:41;;;;;;;7.78;7.07;;;30.80;99.90;;;;;;5040834;28;20489;-37
2023/08/17 11:18:08;;;;;;;8.85;7.95;;;31.00;99.90;;;;;;5038122;28;20116;-39
2023/08/17 11:20:35;;;;;;;7.47;6.77;;;31.20;99.90;;;;;;5044035;28;20037;-41
2023/08/17 11:23:01;;;;;;;8.20;7.40;;;31.20;99.90;;;;;;5041664;28;20272;-40
2023/08/17 11:25:27;;;;;;;8.80;7.80;;;31.30;99.90;;;;;;5041187;28;20441;-40
2023/08/17 11:27:54;;;;;;;11.25;8.40;;;30.90;99.90;;;;;;5043384;28;20037;-38
2023/08/17 11:30:22;;;;;;;10.93;8.30;;;30.30;99.90;;;;;;5040667;28;20039;-38
2023/08/17 11:32:51;;;;;;;7.25;6.40;;;30.10;99.90;;;;;;5021266;28;20045;-34
2023/08/17 11:35:16;;;;;;;9.35;7.30;;;30.20;99.90;;;;;;5024793;28;20135;-39
2023/08/17 11:37:43;;;;;;;10.88;7.95;;;30.80;99.90;;;;;;5042208;28;20558;-36
2023/08/17 11:40:12;;;;;;;7.57;6.85;;;30.70;99.90;;;;;;5044403;28;20072;-42
2023/08/17 11:42:39;;;;;;;8.80;6.85;;;30.50;99.90;;;;;;5040940;28;20068;-39
2023/08/17 11:45:05;;;;;;;7.37;6.53;;;30.60;99.90;;;;;;5036060;28;20404;-35
2023/08/17 11:47:32;;;;;;;8.30;7.50;;;30.70;99.90;;;;;;5037743;28;20028;-40
2023/08/17 11:50:07;;;;;;;7.78;7.07;;;30.80;99.90;;;;;;5040203;28;20014;-41
2023/08/17 11:52:33;;;;;;;9.48;6.88;;;30.50;99.90;;;;;;5039462;28;20041;-39
2023/08/17 11:54:59;;;;;;;7.43;6.72;;;30.30;99.90;;;;;;5040871;28;20539;-40
2023/08/17 11:57:26;;;;;;;7.45;6.75;;;30.40;99.90;;;;;;5044507;28;20378;-41
2023/08/17 11:59:59;;;;;;;8.85;7.05;;;30.50;99.90;;;;;;5038976;28;20108;-38
2023/08/17 12:02:25;;;;;;;7.82;7.03;;;30.30;99.90;;;;;;5036134;28;20634;-40
2023/08/17 12:04:51;;;;;;;7.70;6.97;;;30.20;99.90;;;;;;5043013;28;20025;-39
2023/08/17 12:07:21;;;;;;;7.93;7.22;;;30.40;99.90;;;;;;5040527;28;20282;-40
2023/08/17 12:09:48;;;;;;;7.88;6.97;;;30.30;99.90;;;;;;5022828;28;20103;-40
2023/08/17 12:12:18;;;;;;;8.02;7.25;;;30.60;99.90;;;;;;5040701;28;20029;-41
2023/08/17 12:14:46;;;;;;;7.80;7.03;;;31.20;99.90;;;;;;5042539;28;20040;-40
2023/08/17 12:17:16;;;;;;;;;;;31.20;99.90;;;;;;5042702;28;20047;-41
2023/08/17 12:19:41;;;;;;;6.70;6.00;;;30.90;99.90;;;;;;5042608;28;19909;-41
2023/08/17 12:22:07;;;;;;;7.22;6.63;;;30.70;99.90;;;;;;5038378;28;20029;-41
2023/08/17 12:24:34;;;;;;;7.68;6.70;;;31.20;99.90;;;;;;5037930;28;20036;-40
2023/08/17 12:27:02;;;;;;;8.52;6.45;;;31.20;99.90;;;;;;5035251;28;20456;-41
2023/08/17 12:29:28;;;;;;;7.13;6.50;;;30.80;99.90;;;;;;5038433;28;20044;-39
2023/08/17 12:31:53;;;;;;;7.25;6.55;;;30.50;99.90;;;;;;5038271;28;20699;-36
2023/08/17 12:34:19;;;;;;;7.28;6.60;;;31.10;99.90;;;;;;5039310;28;20557;-31
2023/08/17 12:36:44;;;;;;;6.22;5.72;;;31.60;99.90;;;;;;5040661;28;20025;-32
2023/08/17 12:39:10;;;;;;;7.13;6.53;;;31.80;99.90;;;;;;5037387;28;20086;-31
2023/08/17 12:41:35;;;;;;;7.28;6.57;;;31.80;99.90;;;;;;5042854;28;20456;-31
2023/08/17 12:44:01;;;;;;;7.10;6.40;;;30.80;99.90;;;;;;5041033;28;20025;-32